Terminal Aerodrome Forecast
Issued by NWS Jacksonville, FL

Current Version | Previous Version | Text Only | Print | Product List | Glossary On
Versions: 1 2 3 4 5 6 7 8 9 10 11 12 13 14 15 16 17 18 19 20 21
000
FTUS42 KJAX 260532
TAFSSI
TAF
KSSI 260532Z 2606/2706 21009KT P6SM BKN035 BKN250
     FM260900 24007KT P6SM BKN030
     FM261300 27011G20KT P6SM SCT060
     FM261700 27015G23KT P6SM SCT035=

USA.gov is the U.S. government's official web portal to all federal, state and local government web resources and services.